Change the Weather History Date:

Sunday, March 10, 2013

  Actual Average Record
Temperature  
Mean Temperature 35 °F -  
Max Temperature 49 °F 37 °F 61 °F (1977)
Min Temperature 21 °F 15 °F -17 °F (1984)
Degree Days  
Heating Degree Days 30    
Moisture  
Dew Point 20 °F    
Average Humidity 52    
Maximum Humidity 83    
Minimum Humidity 26    
Precipitation  
Precipitation 0.00 in - - ()
Sea Level Pressure  
Sea Level Pressure 30.22 in    
Wind  
Wind Speed 7 mph (South)    
Max Wind Speed 16 mph    
Max Gust Speed 21 mph    
Visibility 10 miles    
Events      
Averages and records for this station are not official NWS values.
T = Trace of Precipitation, MM = Missing Value Source: NWS Daily Summary

Daily Weather History Graph

Daily Weather History Graph

Search for Another Location

Airport or City:

Trip Planner

Search our weather history database for the weather conditions in past years. The results will help you decide how hot, cold, wet, or windy it might be!

Date:

Astronomy

Mar. 10, 2013 Rise Set
Actual Time 7:10 AM EDT 6:48 PM EDT
Civil Twilight 6:40 AM EDT 7:17 PM EDT
Nautical Twilight 6:07 AM EDT 7:51 PM EDT
Astronomical Twilight 5:32 AM EDT 8:26 PM EDT
Moon 6:10 AM EDT (3/10) 5:52 PM EDT (3/10)
Length of Visible Light 12h 36m
Length of Day
11h 38m
Waning Crescent, 2% of the Moon is Illuminated
Mar 10
Waning Crescent
Mar 11
New
Mar 19
First Quarter
Mar 27
Full
Apr 3
Last Quarter

Hourly Weather History & Observations

Time (EDT) Temp. Windchill Dew Point Humidity Pressure Visibility Wind Dir Wind Speed Gust Speed Precip Events Conditions
12:15 AM 26.1 °F - 19.6 °F 76% 30.32 in 10.0 mi Calm Calm - N/A   Clear
12:35 AM 25.3 °F - 19.4 °F 78% 30.32 in 10.0 mi Calm Calm - N/A   Clear
12:55 AM 25.5 °F 19.9 °F 19.4 °F 78% 30.32 in 10.0 mi SW 4.6 mph - N/A   Clear
1:15 AM 25.2 °F 20.9 °F 19.2 °F 78% 30.31 in 10.0 mi SSW 3.5 mph - N/A   Clear
1:35 AM 24.4 °F 18.6 °F 19.0 °F 80% 30.31 in 10.0 mi SW 4.6 mph - N/A   Clear
1:55 AM 24.8 °F 20.5 °F 19.4 °F 80% 30.30 in 10.0 mi SSW 3.5 mph - N/A   Clear
3:15 AM 22.3 °F 17.6 °F 16.3 °F 78% 30.30 in 10.0 mi SSW 3.5 mph - N/A   Clear
3:35 AM 23.4 °F 17.4 °F 18.1 °F 80% 30.29 in 10.0 mi South 4.6 mph - N/A   Clear
3:55 AM 25.3 °F 21.1 °F 19.0 °F 77% 30.29 in 10.0 mi SSW 3.5 mph - N/A   Clear
4:15 AM 25.0 °F 20.7 °F 18.5 °F 76% 30.29 in 10.0 mi South 3.5 mph - N/A   Clear
4:35 AM 22.8 °F 18.2 °F 18.0 °F 82% 30.28 in 10.0 mi SW 3.5 mph - N/A   Clear
4:55 AM 23.5 °F 17.6 °F 18.3 °F 80% 30.28 in 10.0 mi SW 4.6 mph - N/A   Clear
5:15 AM 23.2 °F - 18.3 °F 82% 30.28 in 10.0 mi Calm Calm - N/A   Clear
5:35 AM 21.7 °F 14.3 °F 17.4 °F 83% 30.29 in 10.0 mi SW 5.8 mph - N/A   Clear
5:55 AM 23.0 °F 14.7 °F 17.8 °F 80% 30.29 in 10.0 mi SW 6.9 mph - N/A   Clear
6:15 AM 23.7 °F 17.8 °F 18.1 °F 79% 30.29 in 10.0 mi SW 4.6 mph - N/A   Clear
6:35 AM 22.8 °F 14.5 °F 18.1 °F 82% 30.29 in 10.0 mi SW 6.9 mph - N/A   Clear
6:55 AM 23.9 °F 15.8 °F 17.6 °F 77% 30.30 in 10.0 mi SW 6.9 mph - N/A   Clear
7:15 AM 26.8 °F 20.2 °F 17.2 °F 67% 30.30 in 10.0 mi SSW 5.8 mph - N/A   Clear
7:55 AM 29.7 °F 22.8 °F 17.6 °F 61% 30.30 in 10.0 mi South 6.9 mph - N/A   Clear
8:35 AM 31.1 °F 26.4 °F 18.1 °F 59% 30.31 in 10.0 mi South 4.6 mph - N/A   Clear
8:55 AM 32.4 °F 26.9 °F 18.5 °F 57% 30.30 in 10.0 mi South 5.8 mph - N/A   Clear
9:15 AM 33.1 °F 27.7 °F 18.7 °F 56% 30.30 in 10.0 mi South 5.8 mph - N/A   Clear
9:35 AM 35.1 °F 29.3 °F 19.2 °F 53% 30.30 in 10.0 mi South 6.9 mph - N/A   Clear
9:55 AM 36.0 °F 29.0 °F 19.6 °F 51% 30.29 in 10.0 mi SSE 9.2 mph 18.4 mph N/A   Clear
10:15 AM 37.4 °F 30.8 °F 19.6 °F 49% 30.29 in 10.0 mi SSE 9.2 mph - N/A   Clear
10:35 AM 38.8 °F 31.6 °F 19.9 °F 47% 30.28 in 10.0 mi South 11.5 mph 17.3 mph N/A   Clear
10:55 AM 40.3 °F 32.6 °F 19.6 °F 44% 30.27 in 10.0 mi South 13.8 mph 17.3 mph N/A   Clear
11:15 AM 40.1 °F 32.7 °F 20.1 °F 45% 30.27 in 10.0 mi SSE 12.7 mph - N/A   Clear
11:35 AM 40.5 °F 33.2 °F 20.5 °F 45% 30.25 in 10.0 mi SSE 12.7 mph - N/A   Clear
11:55 AM 41.4 °F 34.7 °F 19.4 °F 41% 30.25 in 10.0 mi South 11.5 mph - N/A   Clear
12:15 PM 42.8 °F 36.2 °F 20.1 °F 40% 30.24 in 10.0 mi SSE 12.7 mph 17.3 mph N/A   Clear
12:35 PM 43.2 °F 35.9 °F 19.9 °F 40% 30.23 in 10.0 mi SSE 15.0 mph 18.4 mph N/A   Clear
12:55 PM 43.0 °F 36.8 °F 20.8 °F 41% 30.23 in 10.0 mi SE 11.5 mph - N/A   Clear
1:15 PM 43.2 °F 36.6 °F 22.1 °F 43% 30.22 in 10.0 mi SE 12.7 mph - N/A   Clear
1:35 PM 43.7 °F 37.7 °F 21.2 °F 41% 30.22 in 10.0 mi SE 11.5 mph - N/A   Clear
1:55 PM 44.4 °F 38.6 °F 20.5 °F 39% 30.21 in 10.0 mi SE 11.5 mph - N/A   Clear
2:15 PM 44.8 °F 39.4 °F 21.4 °F 40% 30.20 in 10.0 mi SE 10.4 mph - N/A   Clear
2:35 PM 47.3 °F - 18.7 °F 32% 30.18 in 10.0 mi SSE 9.2 mph 17.3 mph N/A   Clear
2:55 PM 46.8 °F - 19.6 °F 34% 30.18 in 10.0 mi SSE 8.1 mph - N/A   Clear
3:15 PM 48.7 °F - 18.0 °F 29% 30.17 in 10.0 mi SSE 10.4 mph - N/A   Clear
3:35 PM 48.9 °F - 17.4 °F 29% 30.17 in 10.0 mi South 10.4 mph 16.1 mph N/A   Clear
3:55 PM 49.1 °F - 15.3 °F 26% 30.16 in 10.0 mi SSE 15.0 mph 19.6 mph N/A   Mostly Cloudy
4:15 PM 49.3 °F - 16.0 °F 27% 30.15 in 10.0 mi SSE 11.5 mph 17.3 mph N/A   Mostly Cloudy
4:35 PM 48.2 °F - 17.1 °F 29% 30.14 in 10.0 mi SSE 15.0 mph 18.4 mph N/A   Mostly Cloudy
4:55 PM 47.5 °F - 17.8 °F 31% 30.14 in 10.0 mi SSE 9.2 mph - N/A   Mostly Cloudy
5:15 PM 46.2 °F 40.5 °F 19.0 °F 34% 30.12 in 10.0 mi SSE 12.7 mph - N/A   Scattered Clouds
5:35 PM 47.3 °F - 18.1 °F 31% 30.13 in 10.0 mi South 10.4 mph 16.1 mph N/A   Clear
5:55 PM 45.7 °F 40.2 °F 20.5 °F 37% 30.13 in 10.0 mi SSE 11.5 mph - N/A   Clear
6:15 PM 45.3 °F 39.3 °F 21.2 °F 38% 30.12 in 10.0 mi SSE 12.7 mph - N/A   Mostly Cloudy
6:35 PM 44.8 °F 38.7 °F 21.2 °F 39% 30.12 in 10.0 mi SSE 12.7 mph 19.6 mph N/A   Mostly Cloudy
6:55 PM 45.1 °F 39.1 °F 20.8 °F 38% 30.12 in 10.0 mi SSE 12.7 mph - N/A   Overcast
7:15 PM 45.3 °F 38.7 °F 20.5 °F 37% 30.11 in 10.0 mi SSE 15.0 mph 19.6 mph N/A   Overcast
7:35 PM 44.6 °F 38.4 °F 20.8 °F 39% 30.12 in 10.0 mi South 12.7 mph - N/A   Mostly Cloudy
7:55 PM 44.6 °F 38.1 °F 20.8 °F 39% 30.11 in 10.0 mi South 13.8 mph 20.7 mph N/A   Scattered Clouds
8:15 PM 44.1 °F 37.1 °F 21.4 °F 41% 30.10 in 10.0 mi SSE 15.0 mph 20.7 mph N/A   Scattered Clouds
8:35 PM 43.9 °F 37.9 °F 21.0 °F 40% 30.12 in 10.0 mi SSE 11.5 mph 18.4 mph N/A   Clear
8:55 PM 43.7 °F 38.1 °F 21.0 °F 41% 30.12 in 10.0 mi South 10.4 mph 18.4 mph N/A   Clear
9:15 PM 43.3 °F 36.1 °F 21.0 °F 41% 30.12 in 10.0 mi South 15.0 mph - N/A   Clear
9:35 PM 43.0 °F 35.4 °F 21.2 °F 42% 30.14 in 10.0 mi South 16.1 mph - N/A   Clear
9:55 PM 42.8 °F 35.8 °F 21.6 °F 43% 30.13 in 10.0 mi South 13.8 mph 19.6 mph N/A   Clear
10:15 PM 41.9 °F 35.4 °F 22.3 °F 46% 30.13 in 10.0 mi South 11.5 mph - N/A   Scattered Clouds
10:35 PM 41.4 °F 34.3 °F 22.8 °F 48% 30.14 in 10.0 mi SSE 12.7 mph - N/A   Scattered Clouds
11:15 PM 40.8 °F 34.5 °F 23.0 °F 49% 30.14 in 10.0 mi SSE 10.4 mph - N/A   Scattered Clouds
11:55 PM 41.2 °F 35.5 °F 23.5 °F 50% 30.15 in 10.0 mi South 9.2 mph - N/A   Scattered Clouds
12:15 AM 41.0 °F 33.5 °F 23.5 °F 50% 30.15 in 10.0 mi South 13.8 mph - N/A   Mostly Cloudy
12:35 AM 40.3 °F 32.6 °F 24.4 °F 53% 30.14 in 10.0 mi SSE 13.8 mph 18.4 mph N/A   Scattered Clouds
12:55 AM 39.6 °F 33.5 °F 25.2 °F 56% 30.15 in 10.0 mi SE 9.2 mph - N/A   Mostly Cloudy